Time;durP1;ratioP1;P1;durP2;ratioP2;P2;SDS_P1;SDS_P2;PMS_P1;PMS_P2;Temp;Humidity;BMP_temperature;BMP_pressure;BME280_temperature;BME280_humidity;BME280_pressure;Samples;Min_cycle;Max_cycle;Signal;HPM_P1;HPM_P2
2023/12/23 00:00:10;;;;;;;8.77;2.30;;;;;;;;;;5072240;28;20211;-76
2023/12/23 00:02:57;;;;;;;13.10;3.03;;;;;;;;;;5072204;28;20218;-76
2023/12/23 00:05:24;;;;;;;11.00;2.60;;;;;;;;;;5072188;28;20273;-76
2023/12/23 00:07:52;;;;;;;8.17;2.80;;;;;;;;;;5072415;28;20211;-76
2023/12/23 00:10:19;;;;;;;12.70;3.07;;;;;;;;;;5071857;28;20786;-76
2023/12/23 00:12:46;;;;;;;12.90;3.57;;;;;;;;;;5072174;28;20687;-76
2023/12/23 00:15:13;;;;;;;15.47;2.50;;;;;;;;;;5072063;28;20211;-76
2023/12/23 00:17:40;;;;;;;17.33;3.27;;;;;;;;;;5071931;28;20275;-76
2023/12/23 00:20:08;;;;;;;10.03;2.37;;;;;;;;;;5072053;28;20195;-76
2023/12/23 00:22:36;;;;;;;11.70;2.10;;;;;;;;;;5070972;28;20759;-76
2023/12/23 00:25:04;;;;;;;13.20;2.97;;;;;;;;;;5071922;28;20203;-76
2023/12/23 00:27:31;;;;;;;17.27;4.13;;;;;;;;;;5072014;28;20206;-76
2023/12/23 00:29:58;;;;;;;16.77;3.40;;;;;;;;;;5071653;28;20234;-76
2023/12/23 00:32:27;;;;;;;9.30;3.60;;;;;;;;;;5071690;28;20207;-76
2023/12/23 00:34:54;;;;;;;14.83;4.00;;;;;;;;;;5071735;28;20211;-76
2023/12/23 00:37:21;;;;;;;14.03;3.20;;;;;;;;;;5071731;28;20197;-76
2023/12/23 00:39:48;;;;;;;16.73;4.47;;;;;;;;;;5071708;28;20668;-76
2023/12/23 00:42:15;;;;;;;10.67;3.50;;;;;;;;;;5071638;28;20280;-76
2023/12/23 00:44:43;;;;;;;18.30;3.50;;;;;;;;;;5070876;28;20199;-78
2023/12/23 00:47:11;;;;;;;16.33;3.97;;;;;;;;;;5071084;28;20648;-76
2023/12/23 00:49:38;;;;;;;13.17;3.40;;;;;;;;;;5071720;28;20231;-76
2023/12/23 00:52:05;;;;;;;12.37;3.00;;;;;;;;;;5070477;28;20282;-76
2023/12/23 00:54:32;;;;;;;15.37;3.10;;;;;;;;;;5070427;28;20634;-75
2023/12/23 00:56:59;;;;;;;7.40;2.60;;;;;;;;;;5071195;28;20209;-76
2023/12/23 00:59:26;;;;;;;8.13;2.53;;;;;;;;;;5071326;28;20223;-75
2023/12/23 01:01:53;;;;;;;13.53;3.30;;;;;;;;;;5070144;28;20199;-75
2023/12/23 01:04:22;;;;;;;9.10;3.17;;;;;;;;;;5071447;28;20656;-77
2023/12/23 01:06:50;;;;;;;8.03;2.90;;;;;;;;;;5071418;28;20198;-76
2023/12/23 01:09:17;;;;;;;9.60;2.70;;;;;;;;;;5069983;28;20687;-76
2023/12/23 01:11:44;;;;;;;8.80;3.47;;;;;;;;;;5053494;28;20207;-76
2023/12/23 01:14:11;;;;;;;10.07;2.80;;;;;;;;;;5071098;28;20211;-76
2023/12/23 01:16:39;;;;;;;6.47;2.37;;;;;;;;;;5071253;28;20294;-76
2023/12/23 01:19:06;;;;;;;9.80;3.23;;;;;;;;;;5071592;28;20222;-77
2023/12/23 01:21:33;;;;;;;13.97;2.70;;;;;;;;;;5071385;28;20227;-77
2023/12/23 01:24:00;;;;;;;11.57;3.00;;;;;;;;;;5071327;28;20206;-77
2023/12/23 01:26:27;;;;;;;11.50;2.47;;;;;;;;;;5071084;28;20199;-76
2023/12/23 01:29:00;;;;;;;15.63;2.30;;;;;;;;;;5070151;28;20200;-76
2023/12/23 01:31:27;;;;;;;12.20;2.63;;;;;;;;;;5053508;28;20196;-76
2023/12/23 01:33:55;;;;;;;8.73;2.47;;;;;;;;;;5069585;28;20278;-76
2023/12/23 01:36:22;;;;;;;18.40;3.53;;;;;;;;;;5069541;28;20203;-76
2023/12/23 01:38:49;;;;;;;9.97;2.53;;;;;;;;;;5070883;28;20210;-76
2023/12/23 01:41:16;;;;;;;16.73;3.20;;;;;;;;;;5070727;28;20253;-76
2023/12/23 01:43:44;;;;;;;17.60;3.43;;;;;;;;;;5071095;28;20207;-76
2023/12/23 01:46:11;;;;;;;16.63;3.90;;;;;;;;;;5069608;28;20674;-76
2023/12/23 01:48:40;;;;;;;11.93;2.77;;;;;;;;;;5070979;28;20207;-76
2023/12/23 01:51:08;;;;;;;19.73;4.17;;;;;;;;;;5069318;28;20223;-76
2023/12/23 01:53:36;;;;;;;17.67;3.57;;;;;;;;;;5053088;28;20652;-76
2023/12/23 01:56:03;;;;;;;9.50;3.33;;;;;;;;;;5052882;28;20195;-76
2023/12/23 01:58:30;;;;;;;22.67;4.90;;;;;;;;;;5053420;28;20207;-76
2023/12/23 02:00:57;;;;;;;7.83;2.90;;;;;;;;;;5069444;28;20207;-76
2023/12/23 02:03:28;;;;;;;9.13;2.70;;;;;;;;;;5070692;28;20195;-76
2023/12/23 02:05:55;;;;;;;12.63;3.27;;;;;;;;;;5053170;28;20191;-76
2023/12/23 02:08:23;;;;;;;10.27;3.10;;;;;;;;;;5069359;28;20226;-76
2023/12/23 02:10:54;;;;;;;14.47;2.77;;;;;;;;;;5070556;28;20215;-76
2023/12/23 02:13:27;;;;;;;6.30;2.60;;;;;;;;;;5069552;28;20264;-76
2023/12/23 02:15:54;;;;;;;9.10;2.27;;;;;;;;;;5069171;28;20207;-75
2023/12/23 02:18:21;;;;;;;12.67;2.77;;;;;;;;;;5070528;28;20242;-76
2023/12/23 02:20:52;;;;;;;10.77;3.03;;;;;;;;;;5068860;28;20224;-76
2023/12/23 02:23:20;;;;;;;8.23;2.70;;;;;;;;;;5070784;28;20565;-76
2023/12/23 02:25:54;;;;;;;7.17;3.10;;;;;;;;;;5070404;28;20211;-76
2023/12/23 02:28:22;;;;;;;12.20;2.90;;;;;;;;;;5052767;28;20211;-76
2023/12/23 02:30:50;;;;;;;8.93;2.07;;;;;;;;;;5069369;28;20222;-76
2023/12/23 02:33:17;;;;;;;23.77;3.80;;;;;;;;;;5052890;28;20203;-77
2023/12/23 02:35:45;;;;;;;9.03;2.80;;;;;;;;;;5070910;28;20614;-76
2023/12/23 02:38:13;;;;;;;15.27;3.10;;;;;;;;;;5069341;28;20257;-76
2023/12/23 02:40:40;;;;;;;9.63;3.10;;;;;;;;;;5069204;28;20226;-76
2023/12/23 02:43:07;;;;;;;7.30;2.97;;;;;;;;;;5052404;28;20223;-76
2023/12/23 02:45:34;;;;;;;9.80;2.50;;;;;;;;;;5070947;28;20214;-76
2023/12/23 02:48:02;;;;;;;6.93;2.00;;;;;;;;;;5074022;28;20218;-76
2023/12/23 02:50:29;;;;;;;16.20;3.10;;;;;;;;;;5072524;28;20598;-76
2023/12/23 02:52:56;;;;;;;10.97;3.03;;;;;;;;;;5073781;28;20202;-76
2023/12/23 02:55:23;;;;;;;7.83;2.20;;;;;;;;;;5073688;28;20238;-76
2023/12/23 02:57:50;;;;;;;16.13;3.27;;;;;;;;;;5072469;28;20211;-76
2023/12/23 03:00:18;;;;;;;10.10;2.83;;;;;;;;;;5072653;28;20192;-76
2023/12/23 03:02:45;;;;;;;10.43;2.83;;;;;;;;;;5073693;28;20206;-76
2023/12/23 03:05:14;;;;;;;9.33;2.90;;;;;;;;;;5073324;28;20207;-76
2023/12/23 03:07:41;;;;;;;8.30;2.27;;;;;;;;;;5073718;28;20200;-76
2023/12/23 03:10:08;;;;;;;17.07;2.83;;;;;;;;;;5073328;28;20215;-76
2023/12/23 03:12:36;;;;;;;13.10;2.90;;;;;;;;;;5073311;28;20218;-78
2023/12/23 03:15:03;;;;;;;3.73;1.83;;;;;;;;;;5071900;28;20299;-77
2023/12/23 03:17:30;;;;;;;5.47;2.13;;;;;;;;;;5073172;28;20214;-75
2023/12/23 03:19:57;;;;;;;12.10;2.83;;;;;;;;;;5072884;28;20668;-77
2023/12/23 03:22:25;;;;;;;7.63;2.33;;;;;;;;;;5072918;28;20321;-77
2023/12/23 03:24:52;;;;;;;9.90;2.30;;;;;;;;;;5071806;28;20572;-76
2023/12/23 03:27:19;;;;;;;8.57;3.13;;;;;;;;;;5072920;28;20219;-76
2023/12/23 03:29:46;;;;;;;6.97;2.60;;;;;;;;;;5073069;28;20231;-76
2023/12/23 03:32:16;;;;;;;9.73;2.50;;;;;;;;;;5072882;28;20272;-76
2023/12/23 03:34:43;;;;;;;11.10;2.57;;;;;;;;;;5073047;28;20200;-76
2023/12/23 03:37:11;;;;;;;6.47;2.10;;;;;;;;;;5069236;28;20195;-76
2023/12/23 03:39:38;;;;;;;6.10;2.50;;;;;;;;;;5071224;28;20195;-76
2023/12/23 03:42:06;;;;;;;8.10;2.03;;;;;;;;;;5071829;28;20211;-76
2023/12/23 03:44:32;;;;;;;7.63;1.90;;;;;;;;;;5072143;28;20226;-77
2023/12/23 03:47:00;;;;;;;12.60;2.90;;;;;;;;;;5071822;28;20203;-76
2023/12/23 03:49:27;;;;;;;8.30;3.00;;;;;;;;;;5070677;28;21038;-76
2023/12/23 03:51:55;;;;;;;7.43;2.60;;;;;;;;;;5070110;28;20215;-75
2023/12/23 03:54:21;;;;;;;19.60;4.33;;;;;;;;;;5070265;28;20648;-76
2023/12/23 03:56:49;;;;;;;9.47;2.77;;;;;;;;;;5070058;28;20207;-76
2023/12/23 03:59:18;;;;;;;4.87;1.80;;;;;;;;;;5070315;28;20196;-76
2023/12/23 04:01:45;;;;;;;5.67;1.90;;;;;;;;;;5071252;28;20249;-76
2023/12/23 04:04:12;;;;;;;8.90;2.27;;;;;;;;;;5072290;28;20199;-76
2023/12/23 04:06:39;;;;;;;10.20;3.10;;;;;;;;;;5072256;28;20199;-76
2023/12/23 04:09:06;;;;;;;7.60;2.50;;;;;;;;;;5072047;28;20207;-76
2023/12/23 04:11:37;;;;;;;9.07;2.43;;;;;;;;;;5071047;28;20709;-76
2023/12/23 04:14:04;;;;;;;15.33;3.63;;;;;;;;;;5071149;28;20207;-76
2023/12/23 04:16:31;;;;;;;16.17;3.27;;;;;;;;;;5072210;28;20214;-76
2023/12/23 04:18:58;;;;;;;6.73;3.00;;;;;;;;;;5072115;28;20249;-76
2023/12/23 04:21:26;;;;;;;10.07;3.20;;;;;;;;;;5054130;28;20239;-77
2023/12/23 04:23:53;;;;;;;13.47;3.37;;;;;;;;;;5071867;28;20215;-77
2023/12/23 04:26:20;;;;;;;19.10;3.17;;;;;;;;;;5071922;28;20208;-77
2023/12/23 04:28:47;;;;;;;10.30;3.23;;;;;;;;;;5070747;28;20203;-76
2023/12/23 04:31:15;;;;;;;10.27;2.37;;;;;;;;;;5070405;28;20723;-77
2023/12/23 04:33:42;;;;;;;5.53;1.67;;;;;;;;;;5071817;28;20579;-77
2023/12/23 04:36:10;;;;;;;10.10;2.10;;;;;;;;;;5071491;28;20325;-77
2023/12/23 04:38:38;;;;;;;9.03;2.50;;;;;;;;;;5070714;28;20196;-76
2023/12/23 04:41:06;;;;;;;9.57;2.87;;;;;;;;;;5070557;28;20203;-76
2023/12/23 04:43:36;;;;;;;9.40;2.60;;;;;;;;;;5070619;28;20191;-76
2023/12/23 04:46:04;;;;;;;6.13;1.80;;;;;;;;;;5070121;28;20207;-76
2023/12/23 04:48:31;;;;;;;3.97;1.57;;;;;;;;;;5070331;28;20203;-76
2023/12/23 04:50:58;;;;;;;25.37;5.43;;;;;;;;;;5070337;28;20215;-76
2023/12/23 04:53:25;;;;;;;4.33;2.20;;;;;;;;;;5070362;28;20920;-75
2023/12/23 04:55:53;;;;;;;16.60;3.03;;;;;;;;;;5070158;28;20191;-76
2023/12/23 04:58:20;;;;;;;3.27;2.00;;;;;;;;;;5071330;28;20191;-76
2023/12/23 05:00:47;;;;;;;7.33;1.97;;;;;;;;;;5070090;28;20249;-76
2023/12/23 05:03:14;;;;;;;4.20;1.73;;;;;;;;;;5071135;28;20818;-76
2023/12/23 05:05:42;;;;;;;12.03;3.23;;;;;;;;;;5054008;28;20205;-76
2023/12/23 05:08:09;;;;;;;13.47;2.97;;;;;;;;;;5053113;28;20680;-76
2023/12/23 05:10:37;;;;;;;10.00;2.03;;;;;;;;;;5070019;28;20215;-76
2023/12/23 05:13:04;;;;;;;8.73;2.67;;;;;;;;;;5071150;28;20679;-76
2023/12/23 05:15:31;;;;;;;6.83;3.00;;;;;;;;;;5069998;28;20196;-76
2023/12/23 05:17:58;;;;;;;11.60;2.20;;;;;;;;;;5069899;28;20191;-76
2023/12/23 05:20:25;;;;;;;6.27;2.67;;;;;;;;;;5070302;28;20199;-76
2023/12/23 05:22:52;;;;;;;8.90;2.77;;;;;;;;;;5051291;28;20240;-76
2023/12/23 05:25:20;;;;;;;10.63;2.50;;;;;;;;;;5066862;28;20568;-76
2023/12/23 05:27:47;;;;;;;12.67;2.93;;;;;;;;;;5052980;28;20226;-77
2023/12/23 05:30:15;;;;;;;10.43;3.07;;;;;;;;;;5069703;28;20530;-77
2023/12/23 05:32:43;;;;;;;10.30;3.03;;;;;;;;;;5061385;28;20278;-76
2023/12/23 05:35:11;;;;;;;6.60;2.27;;;;;;;;;;5071323;28;20203;-76
2023/12/23 05:37:38;;;;;;;17.57;4.13;;;;;;;;;;5071014;28;20261;-76
2023/12/23 05:40:06;;;;;;;8.20;2.20;;;;;;;;;;5071002;28;20705;-78
2023/12/23 05:42:32;;;;;;;7.37;2.50;;;;;;;;;;5071553;28;20199;-78
2023/12/23 05:45:00;;;;;;;10.30;2.40;;;;;;;;;;5070939;28;20195;-77
2023/12/23 05:47:29;;;;;;;4.57;2.30;;;;;;;;;;5059105;28;20204;-77
2023/12/23 05:49:57;;;;;;;6.00;1.93;;;;;;;;;;5050850;28;20267;-77
2023/12/23 05:52:24;;;;;;;12.27;2.50;;;;;;;;;;5050666;28;20623;-77
2023/12/23 05:54:51;;;;;;;9.47;2.50;;;;;;;;;;5049576;28;20242;-77
2023/12/23 05:57:18;;;;;;;10.47;2.93;;;;;;;;;;5050704;28;20211;-77
2023/12/23 05:59:45;;;;;;;4.87;1.80;;;;;;;;;;5050012;28;20188;-77
2023/12/23 06:02:12;;;;;;;7.83;2.07;;;;;;;;;;5050518;28;20203;-76
2023/12/23 06:04:39;;;;;;;3.30;1.80;;;;;;;;;;5050613;28;20207;-76
2023/12/23 06:07:06;;;;;;;3.57;1.67;;;;;;;;;;5050327;28;20228;-76
2023/12/23 06:09:34;;;;;;;12.33;3.63;;;;;;;;;;5050564;28;20212;-76
2023/12/23 06:12:01;;;;;;;9.63;2.40;;;;;;;;;;5050353;28;20697;-75
2023/12/23 06:14:28;;;;;;;6.87;1.90;;;;;;;;;;5058328;28;20210;-75
2023/12/23 06:16:55;;;;;;;11.60;2.07;;;;;;;;;;5070210;28;20293;-75
2023/12/23 06:19:22;;;;;;;4.17;1.73;;;;;;;;;;5070429;28;20295;-75
2023/12/23 06:21:50;;;;;;;14.43;3.13;;;;;;;;;;5073161;28;20234;-75
2023/12/23 06:24:17;;;;;;;7.30;1.90;;;;;;;;;;5074266;28;20195;-75
2023/12/23 06:26:44;;;;;;;6.30;2.00;;;;;;;;;;5073847;28;20225;-75
2023/12/23 06:29:12;;;;;;;3.60;1.60;;;;;;;;;;5072875;28;20214;-76
2023/12/23 06:31:39;;;;;;;5.00;1.97;;;;;;;;;;5062921;28;20239;-76
2023/12/23 06:34:07;;;;;;;16.17;2.80;;;;;;;;;;5063876;28;20283;-76
2023/12/23 06:36:34;;;;;;;6.47;1.87;;;;;;;;;;5062111;28;20239;-76
2023/12/23 06:39:01;;;;;;;15.90;4.47;;;;;;;;;;5073144;28;20222;-76
2023/12/23 06:41:28;;;;;;;7.07;1.90;;;;;;;;;;5072975;28;20243;-76
2023/12/23 06:43:55;;;;;;;7.77;2.30;;;;;;;;;;5073202;28;20223;-77
2023/12/23 06:46:23;;;;;;;11.53;3.27;;;;;;;;;;5072404;28;20704;-77
2023/12/23 06:48:51;;;;;;;7.27;2.40;;;;;;;;;;5073506;28;20246;-76
2023/12/23 06:51:18;;;;;;;6.33;1.73;;;;;;;;;;5073546;28;20611;-76
2023/12/23 06:53:48;;;;;;;8.90;2.60;;;;;;;;;;5073601;28;20223;-76
2023/12/23 06:56:15;;;;;;;8.17;2.47;;;;;;;;;;5075359;28;20288;-77
2023/12/23 06:58:42;;;;;;;9.33;2.20;;;;;;;;;;5072846;28;20281;-76
2023/12/23 07:01:09;;;;;;;6.20;2.10;;;;;;;;;;5053074;28;20231;-74
2023/12/23 07:03:37;;;;;;;4.07;1.30;;;;;;;;;;5054397;28;20246;-77
2023/12/23 07:06:04;;;;;;;3.57;1.70;;;;;;;;;;5054636;28;20228;-76
2023/12/23 07:08:33;;;;;;;10.23;2.73;;;;;;;;;;5052979;28;20743;-77
2023/12/23 07:11:01;;;;;;;7.20;2.53;;;;;;;;;;5055581;28;20215;-77
2023/12/23 07:13:29;;;;;;;5.67;2.10;;;;;;;;;;5055589;28;20638;-78
2023/12/23 07:15:56;;;;;;;6.73;2.40;;;;;;;;;;5073090;28;20608;-77
2023/12/23 07:18:23;;;;;;;10.93;2.27;;;;;;;;;;5054227;28;20231;-77
2023/12/23 07:20:51;;;;;;;10.07;1.90;;;;;;;;;;5054605;28;20617;-76
2023/12/23 07:23:18;;;;;;;7.23;2.07;;;;;;;;;;5069389;28;20282;-77
2023/12/23 07:25:45;;;;;;;5.40;1.60;;;;;;;;;;5053770;28;20212;-77
2023/12/23 07:28:12;;;;;;;2.67;1.27;;;;;;;;;;5052849;28;20954;-77
2023/12/23 07:30:44;;;;;;;6.47;1.90;;;;;;;;;;5062686;28;20227;-77
2023/12/23 07:33:13;;;;;;;9.90;1.77;;;;;;;;;;5073858;28;20602;-77
2023/12/23 07:35:40;;;;;;;4.47;1.30;;;;;;;;;;5074486;28;20231;-77
2023/12/23 07:38:07;;;;;;;6.47;1.83;;;;;;;;;;5073041;28;20242;-77
2023/12/23 07:40:35;;;;;;;13.70;3.27;;;;;;;;;;5073289;28;20231;-77
2023/12/23 07:43:02;;;;;;;4.97;1.90;;;;;;;;;;5072688;28;20239;-77
2023/12/23 07:45:31;;;;;;;5.53;1.30;;;;;;;;;;5071877;28;20238;-77
2023/12/23 07:47:58;;;;;;;11.70;2.03;;;;;;;;;;5072948;28;20231;-77
2023/12/23 07:50:26;;;;;;;11.13;2.10;;;;;;;;;;5074711;28;20753;-76
2023/12/23 07:52:53;;;;;;;8.13;1.90;;;;;;;;;;5073243;28;20247;-77
2023/12/23 07:55:21;;;;;;;5.80;1.77;;;;;;;;;;5071268;28;20226;-76
2023/12/23 07:57:48;;;;;;;4.83;1.60;;;;;;;;;;5071853;28;20722;-77
2023/12/23 08:00:15;;;;;;;5.63;1.60;;;;;;;;;;5070910;28;20235;-76
2023/12/23 08:02:43;;;;;;;6.13;1.17;;;;;;;;;;5071776;28;20224;-76
2023/12/23 08:05:10;;;;;;;6.63;2.10;;;;;;;;;;5072316;28;20227;-76
2023/12/23 08:07:42;;;;;;;6.03;1.70;;;;;;;;;;5070557;28;20814;-76
2023/12/23 08:10:09;;;;;;;8.93;1.53;;;;;;;;;;5070615;28;20266;-76
2023/12/23 08:12:36;;;;;;;5.90;1.30;;;;;;;;;;5070682;28;20257;-77
2023/12/23 08:15:03;;;;;;;6.97;1.63;;;;;;;;;;5065778;28;20234;-76
2023/12/23 08:17:30;;;;;;;4.07;1.90;;;;;;;;;;5069828;28;20227;-76
2023/12/23 08:19:58;;;;;;;7.50;1.83;;;;;;;;;;5070804;28;20219;-76
2023/12/23 08:22:25;;;;;;;8.10;1.67;;;;;;;;;;5068048;28;20246;-76
2023/12/23 08:24:52;;;;;;;3.37;1.40;;;;;;;;;;5069099;28;20227;-76
2023/12/23 08:27:19;;;;;;;7.20;1.50;;;;;;;;;;5070452;28;20246;-75
2023/12/23 08:29:46;;;;;;;4.60;1.77;;;;;;;;;;5070152;28;20722;-75
2023/12/23 08:32:13;;;;;;;5.57;1.37;;;;;;;;;;5070804;28;20328;-75
2023/12/23 08:34:40;;;;;;;7.03;1.50;;;;;;;;;;5070685;28;20319;-75
2023/12/23 08:37:08;;;;;;;4.37;1.37;;;;;;;;;;5070154;28;20244;-76
2023/12/23 08:39:34;;;;;;;5.17;1.60;;;;;;;;;;5069628;28;20235;-76
2023/12/23 08:42:02;;;;;;;5.70;1.70;;;;;;;;;;5070428;28;20243;-77
2023/12/23 08:44:29;;;;;;;5.50;1.70;;;;;;;;;;5069507;28;20231;-77
2023/12/23 08:46:56;;;;;;;5.67;2.03;;;;;;;;;;5070404;28;20235;-77
2023/12/23 08:49:23;;;;;;;5.50;1.43;;;;;;;;;;5070553;28;20242;-76
2023/12/23 08:51:51;;;;;;;5.10;1.27;;;;;;;;;;5070753;28;20284;-77
2023/12/23 08:54:17;;;;;;;4.67;1.30;;;;;;;;;;5070236;28;20231;-77
2023/12/23 08:56:45;;;;;;;14.47;2.83;;;;;;;;;;5070805;28;20234;-76
2023/12/23 08:59:11;;;;;;;9.70;2.07;;;;;;;;;;5070116;28;20227;-77
2023/12/23 09:01:39;;;;;;;6.07;1.83;;;;;;;;;;5070265;28;20242;-76
2023/12/23 09:04:06;;;;;;;11.17;2.37;;;;;;;;;;5069812;28;20239;-77
2023/12/23 09:06:33;;;;;;;5.67;1.37;;;;;;;;;;5070419;28;20724;-77
2023/12/23 09:09:01;;;;;;;12.53;2.77;;;;;;;;;;5069860;28;20318;-77
2023/12/23 09:11:28;;;;;;;13.10;3.60;;;;;;;;;;5070594;28;20231;-77
2023/12/23 09:13:55;;;;;;;17.10;4.23;;;;;;;;;;5069860;28;20218;-77
2023/12/23 09:16:22;;;;;;;15.77;4.40;;;;;;;;;;5068613;28;20229;-77
2023/12/23 09:18:49;;;;;;;10.50;2.50;;;;;;;;;;5063878;28;20232;-76
2023/12/23 09:21:17;;;;;;;11.33;1.73;;;;;;;;;;5050645;28;20795;-76
2023/12/23 09:23:44;;;;;;;4.97;1.43;;;;;;;;;;5057796;28;20312;-76
2023/12/23 09:26:13;;;;;;;9.30;2.70;;;;;;;;;;5070823;28;20696;-77
2023/12/23 09:28:40;;;;;;;8.23;3.40;;;;;;;;;;5069831;28;20771;-77
2023/12/23 09:31:07;;;;;;;8.77;2.37;;;;;;;;;;5069785;28;20211;-77
2023/12/23 09:33:36;;;;;;;14.77;4.03;;;;;;;;;;5067366;28;20716;-77
2023/12/23 09:36:03;;;;;;;4.57;1.57;;;;;;;;;;5069108;28;20293;-77
2023/12/23 09:38:30;;;;;;;6.83;2.80;;;;;;;;;;5068320;28;20223;-77
2023/12/23 09:40:57;;;;;;;10.33;1.93;;;;;;;;;;5069280;28;20235;-77
2023/12/23 09:43:24;;;;;;;3.77;2.27;;;;;;;;;;5068246;28;20310;-77
2023/12/23 09:45:52;;;;;;;8.50;2.50;;;;;;;;;;5069093;28;20231;-77
2023/12/23 09:48:19;;;;;;;5.13;2.00;;;;;;;;;;5068465;28;20230;-76
2023/12/23 09:50:46;;;;;;;12.30;2.83;;;;;;;;;;5069363;28;20254;-76
2023/12/23 09:53:13;;;;;;;8.00;1.53;;;;;;;;;;5069251;28;20231;-76
2023/12/23 09:55:41;;;;;;;6.50;2.03;;;;;;;;;;5072008;28;20584;-77
2023/12/23 09:58:08;;;;;;;5.23;1.73;;;;;;;;;;5073253;28;20226;-77
2023/12/23 10:00:35;;;;;;;6.77;2.20;;;;;;;;;;5072820;28;20646;-77
2023/12/23 10:03:05;;;;;;;8.53;2.10;;;;;;;;;;5072110;28;20224;-77
2023/12/23 10:05:40;;;;;;;9.43;2.77;;;;;;;;;;5067023;28;20239;-77
2023/12/23 10:08:07;;;;;;;8.30;2.00;;;;;;;;;;5073087;28;20309;-77
2023/12/23 10:10:35;;;;;;;5.67;1.97;;;;;;;;;;5072745;28;20639;-77
2023/12/23 10:13:02;;;;;;;6.83;2.40;;;;;;;;;;5072977;28;20288;-76
2023/12/23 10:15:29;;;;;;;6.87;1.50;;;;;;;;;;5070569;28;20235;-76
2023/12/23 10:17:58;;;;;;;12.90;2.47;;;;;;;;;;5071574;28;20231;-77
2023/12/23 10:20:26;;;;;;;7.33;1.90;;;;;;;;;;5072570;28;20246;-76
2023/12/23 10:22:53;;;;;;;10.50;2.70;;;;;;;;;;5072939;28;20231;-76
2023/12/23 10:25:20;;;;;;;4.07;1.80;;;;;;;;;;5072629;28;20285;-76
2023/12/23 10:27:51;;;;;;;7.90;2.00;;;;;;;;;;5072833;28;20699;-76
2023/12/23 10:30:18;;;;;;;7.57;2.20;;;;;;;;;;5067613;28;20216;-76
2023/12/23 10:32:48;;;;;;;7.50;2.30;;;;;;;;;;5070472;28;20321;-76
2023/12/23 10:35:19;;;;;;;7.33;2.13;;;;;;;;;;5071128;28;20238;-76
2023/12/23 10:37:47;;;;;;;11.30;2.43;;;;;;;;;;5072878;28;20222;-76
2023/12/23 10:40:18;;;;;;;14.23;2.90;;;;;;;;;;5054506;28;20227;-77
2023/12/23 10:42:45;;;;;;;5.33;2.00;;;;;;;;;;5070456;28;20285;-76
2023/12/23 10:45:12;;;;;;;6.13;1.53;;;;;;;;;;5069944;28;20235;-76
2023/12/23 10:47:39;;;;;;;11.03;3.20;;;;;;;;;;5057555;28;20227;-76
2023/12/23 10:50:09;;;;;;;5.53;2.20;;;;;;;;;;5071570;28;20231;-76
2023/12/23 10:52:36;;;;;;;9.77;2.53;;;;;;;;;;5072792;28;20234;-76
2023/12/23 10:55:05;;;;;;;6.77;2.03;;;;;;;;;;5072313;28;20235;-76
2023/12/23 10:57:34;;;;;;;6.17;2.10;;;;;;;;;;5072829;28;20243;-77
2023/12/23 11:00:03;;;;;;;6.30;2.37;;;;;;;;;;5071809;28;20219;-76
2023/12/23 11:02:30;;;;;;;8.23;2.93;;;;;;;;;;5072291;28;20243;-77
2023/12/23 11:04:59;;;;;;;7.90;2.23;;;;;;;;;;5072314;28;20231;-77
2023/12/23 11:07:32;;;;;;;11.40;3.30;;;;;;;;;;5070935;28;20223;-77
2023/12/23 11:10:01;;;;;;;9.03;2.57;;;;;;;;;;5070924;28;20778;-77
2023/12/23 11:12:29;;;;;;;6.27;2.27;;;;;;;;;;5071057;28;20239;-77
2023/12/23 11:14:57;;;;;;;8.77;1.80;;;;;;;;;;5068739;28;20227;-77
2023/12/23 11:17:27;;;;;;;7.70;1.97;;;;;;;;;;5069359;28;20711;-77
2023/12/23 11:19:56;;;;;;;8.23;3.03;;;;;;;;;;5070883;28;20238;-77
2023/12/23 11:22:28;;;;;;;7.47;2.70;;;;;;;;;;5071851;28;20707;-77
2023/12/23 11:24:55;;;;;;;3.63;1.80;;;;;;;;;;5072577;28;20284;-77
2023/12/23 11:27:35;;;;;;;7.20;2.03;;;;;;;;;;5070339;28;20239;-77
2023/12/23 11:30:04;;;;;;;6.10;1.83;;;;;;;;;;5071207;28;20210;-77
2023/12/23 11:32:33;;;;;;;5.47;1.77;;;;;;;;;;5069866;28;21000;-78
2023/12/23 11:35:00;;;;;;;6.67;2.23;;;;;;;;;;5071345;28;20772;-77
2023/12/23 11:37:53;;;;;;;10.83;1.83;;;;;;;;;;5070555;28;20254;-78
2023/12/23 11:40:22;;;;;;;8.30;2.10;;;;;;;;;;5065990;28;20222;-81
2023/12/23 11:42:49;;;;;;;9.37;1.97;;;;;;;;;;5071670;28;20285;-79
2023/12/23 11:45:17;;;;;;;7.87;2.47;;;;;;;;;;5071761;28;20575;-78
2023/12/23 11:47:44;;;;;;;9.73;2.57;;;;;;;;;;5070708;28;20231;-77
2023/12/23 11:50:12;;;;;;;11.70;2.03;;;;;;;;;;5069848;28;20693;-78
2023/12/23 11:52:40;;;;;;;6.80;2.83;;;;;;;;;;5070393;28;20243;-77
2023/12/23 11:55:08;;;;;;;5.47;2.07;;;;;;;;;;5070644;28;20223;-77
2023/12/23 11:57:35;;;;;;;6.87;2.03;;;;;;;;;;5068276;28;21038;-78
2023/12/23 12:00:04;;;;;;;8.50;2.40;;;;;;;;;;5070176;28;20559;-77
2023/12/23 12:02:32;;;;;;;4.63;2.13;;;;;;;;;;5069929;28;20230;-77
2023/12/23 12:05:00;;;;;;;13.57;4.90;;;;;;;;;;5070628;28;20709;-77
2023/12/23 12:07:28;;;;;;;7.53;2.80;;;;;;;;;;5070281;28;20746;-78
2023/12/23 12:09:55;;;;;;;7.83;2.30;;;;;;;;;;5070954;28;20237;-76
2023/12/23 12:12:22;;;;;;;7.23;2.43;;;;;;;;;;5069931;28;20334;-77
2023/12/23 12:14:50;;;;;;;6.63;2.07;;;;;;;;;;5071084;28;20284;-78
2023/12/23 12:17:17;;;;;;;7.13;2.10;;;;;;;;;;5063140;28;20219;-78
2023/12/23 12:19:44;;;;;;;9.27;2.87;;;;;;;;;;5067013;28;20231;-78
2023/12/23 12:22:11;;;;;;;3.97;1.80;;;;;;;;;;5070343;28;20245;-79
2023/12/23 12:24:40;;;;;;;3.63;1.50;;;;;;;;;;5070204;28;20227;-79
2023/12/23 12:27:07;;;;;;;6.60;1.93;;;;;;;;;;5070634;28;20231;-79
2023/12/23 12:29:34;;;;;;;10.07;3.73;;;;;;;;;;5071826;28;20227;-79
2023/12/23 12:32:01;;;;;;;7.03;2.70;;;;;;;;;;5070081;28;20266;-79
2023/12/23 12:34:29;;;;;;;8.80;2.20;;;;;;;;;;5072063;28;20231;-81
2023/12/23 12:36:56;;;;;;;8.27;3.13;;;;;;;;;;5072069;28;20203;-79
2023/12/23 12:39:25;;;;;;;161.07;48.43;;;;;;;;;;5071413;28;20956;-78
2023/12/23 12:41:53;;;;;;;8.93;3.20;;;;;;;;;;5070323;28;20211;-78
2023/12/23 12:44:20;;;;;;;6.87;2.60;;;;;;;;;;5068429;28;20195;-79
2023/12/23 12:46:54;;;;;;;9.50;3.10;;;;;;;;;;5071687;28;20207;-78
2023/12/23 12:49:25;;;;;;;5.47;2.50;;;;;;;;;;5070142;28;20205;-78
2023/12/23 12:51:52;;;;;;;7.03;2.40;;;;;;;;;;5070235;28;20198;-77
2023/12/23 12:54:21;;;;;;;11.67;2.60;;;;;;;;;;5071049;28;20700;-77
2023/12/23 12:56:48;;;;;;;9.50;3.47;;;;;;;;;;5070014;28;20215;-77
2023/12/23 12:59:15;;;;;;;10.40;3.30;;;;;;;;;;5051115;28;20200;-78
2023/12/23 13:01:42;;;;;;;11.27;2.50;;;;;;;;;;5065637;28;20261;-77
2023/12/23 13:04:10;;;;;;;15.07;3.27;;;;;;;;;;5069519;28;20737;-78
2023/12/23 13:06:37;;;;;;;22.93;6.17;;;;;;;;;;5061894;28;20722;-77
2023/12/23 13:09:04;;;;;;;9.47;2.83;;;;;;;;;;5051829;28;20227;-78
2023/12/23 13:11:32;;;;;;;26.40;8.90;;;;;;;;;;5063651;28;20634;-77
2023/12/23 13:14:00;;;;;;;9.90;3.03;;;;;;;;;;5060470;28;20239;-78
2023/12/23 13:16:27;;;;;;;6.77;2.40;;;;;;;;;;5049605;28;20240;-77
2023/12/23 13:18:55;;;;;;;8.10;3.40;;;;;;;;;;5066325;28;20272;-78
2023/12/23 13:21:27;;;;;;;8.77;3.07;;;;;;;;;;5070181;28;20304;-78
2023/12/23 13:23:55;;;;;;;4.50;2.53;;;;;;;;;;5070093;28;20230;-77
2023/12/23 13:26:22;;;;;;;8.20;2.97;;;;;;;;;;5069792;28;20323;-78
2023/12/23 13:28:49;;;;;;;7.83;2.60;;;;;;;;;;5066840;28;20261;-79
2023/12/23 13:31:21;;;;;;;10.53;2.50;;;;;;;;;;5069269;28;20219;-78
2023/12/23 13:33:49;;;;;;;8.67;3.80;;;;;;;;;;5069988;28;20281;-78
2023/12/23 13:36:16;;;;;;;11.60;4.87;;;;;;;;;;5069832;28;20220;-78
2023/12/23 13:38:44;;;;;;;11.70;3.83;;;;;;;;;;5068908;28;20688;-78
2023/12/23 13:41:15;;;;;;;8.90;3.20;;;;;;;;;;5069329;28;20231;-78
2023/12/23 13:43:43;;;;;;;10.87;3.53;;;;;;;;;;5068653;28;20740;-78
2023/12/23 13:46:10;;;;;;;8.37;2.70;;;;;;;;;;5068896;28;20242;-78
2023/12/23 13:48:37;;;;;;;10.60;3.97;;;;;;;;;;5069819;28;20227;-78
2023/12/23 13:51:04;;;;;;;5.77;2.90;;;;;;;;;;5069346;28;20231;-78
2023/12/23 13:53:32;;;;;;;13.00;3.40;;;;;;;;;;5069730;28;20235;-77
2023/12/23 13:55:59;;;;;;;7.33;3.17;;;;;;;;;;5068346;28;20734;-78
2023/12/23 13:58:26;;;;;;;14.90;3.67;;;;;;;;;;5069390;28;20223;-78
2023/12/23 14:00:54;;;;;;;10.00;3.27;;;;;;;;;;5067466;28;20258;-78
2023/12/23 14:03:21;;;;;;;13.23;2.80;;;;;;;;;;5069910;28;20226;-78
2023/12/23 14:05:48;;;;;;;10.70;4.07;;;;;;;;;;5069352;28;20247;-78
2023/12/23 14:08:16;;;;;;;7.27;3.20;;;;;;;;;;5069470;28;20234;-78
2023/12/23 14:10:44;;;;;;;7.07;3.40;;;;;;;;;;5069347;28;20243;-78
2023/12/23 14:13:15;;;;;;;13.47;3.83;;;;;;;;;;5068760;28;20284;-78
2023/12/23 14:15:43;;;;;;;7.77;3.43;;;;;;;;;;5068706;28;20294;-78
2023/12/23 14:18:10;;;;;;;11.80;3.80;;;;;;;;;;5069613;28;20212;-78
2023/12/23 14:20:37;;;;;;;16.03;4.83;;;;;;;;;;5069118;28;20232;-80
2023/12/23 14:23:05;;;;;;;8.33;3.53;;;;;;;;;;5069272;28;20227;-78
2023/12/23 14:25:33;;;;;;;11.67;3.60;;;;;;;;;;5069884;28;20961;-78
2023/12/23 14:28:01;;;;;;;11.57;3.67;;;;;;;;;;5068484;28;20585;-78
2023/12/23 14:30:28;;;;;;;6.87;2.60;;;;;;;;;;5068344;28;20281;-78
2023/12/23 14:32:55;;;;;;;23.27;7.43;;;;;;;;;;5069342;28;20708;-78
2023/12/23 14:35:23;;;;;;;14.20;5.33;;;;;;;;;;5069875;28;20242;-79
2023/12/23 14:37:50;;;;;;;13.27;5.00;;;;;;;;;;5069032;28;20257;-79
2023/12/23 14:40:18;;;;;;;16.13;4.83;;;;;;;;;;5069493;28;20281;-78